Time Latitude Longitude Accuracy (66% radius in meters) Altitude (meters) Speed (km/hour) Bearing (degrees) Battery (%) GPS flag
08:34:50 57.203925 60.118270 0 0 0 0 1 delete
08:34:49 57.203935 60.118255 0 0 0 0 1 delete
08:34:48 57.203947 60.118238 0 0 0 0 1 delete
08:34:47 57.203959 60.118223 0 0 0 0 1 delete
08:34:46 57.203969 60.118208 0 0 0 0 1 delete
08:34:45 57.203978 60.118193 0 0 0 0 1 delete
08:34:44 57.203984 60.118180 0 0 0 0 1 delete
08:34:43 57.203986 60.118172 0 0 0 0 1 delete
08:34:42 57.203987 60.118168 0 0 0 0 1 delete
08:34:41 57.203991 60.118161 0 0 0 0 1 delete
08:34:40 57.204001 60.118144 0 0 0 0 1 delete
08:34:39 57.204018 60.118117 0 0 0 0 1 delete
08:34:38 57.204038 60.118083 0 0 0 0 1 delete
08:34:37 57.204058 60.118050 0 0 0 0 1 delete
08:34:36 57.204077 60.118017 0 0 0 0 1 delete
08:34:35 57.204097 60.117985 0 0 0 0 1 delete
08:34:34 57.204117 60.117953 0 0 0 0 1 delete
08:34:33 57.204136 60.117919 0 0 0 0 1 delete
08:34:32 57.204155 60.117884 0 0 0 0 1 delete
08:34:31 57.204175 60.117847 0 0 0 0 1 delete
08:34:30 57.204195 60.117809 0 0 0 0 1 delete
08:34:29 57.204218 60.117769 0 0 0 0 1 delete
08:34:28 57.204243 60.117730 0 0 0 0 1 delete
08:34:27 57.204268 60.117692 0 0 0 0 1 delete
08:34:26 57.204292 60.117656 0 0 0 0 1 delete
08:34:25 57.204316 60.117621 0 0 0 0 1 delete
08:34:24 57.204341 60.117587 0 0 0 0 1 delete
08:34:23 57.204364 60.117554 0 0 0 0 1 delete
08:34:22 57.204389 60.117523 0 0 0 0 1 delete
08:34:21 57.204417 60.117495 0 0 0 0 1 delete
08:34:20 57.204450 60.117472 0 0 0 0 1 delete
08:34:19 57.204488 60.117453 0 0 0 0 1 delete
08:34:18 57.204528 60.117437 0 0 0 0 1 delete
08:34:17 57.204569 60.117424 0 0 0 0 1 delete
08:34:16 57.204608 60.117417 0 0 0 0 1 delete
08:34:15 57.204648 60.117418 0 0 0 0 1 delete
08:34:14 57.204687 60.117424 0 0 0 0 1 delete
08:34:13 57.204726 60.117434 0 0 0 0 1 delete
08:34:12 57.204765 60.117444 0 0 0 0 1 delete
08:34:11 57.204804 60.117457 0 0 0 0 1 delete
08:34:10 57.204842 60.117471 0 0 0 0 1 delete
08:34:09 57.204881 60.117485 0 0 0 0 1 delete
08:34:08 57.204917 60.117499 0 0 0 0 1 delete
08:34:07 57.204953 60.117511 0 0 0 0 1 delete
08:34:06 57.204988 60.117521 0 0 0 0 1 delete
08:34:05 57.205026 60.117531 0 0 0 0 1 delete
08:34:04 57.205059 60.117543 0 0 0 0 1 delete
08:34:03 57.205087 60.117556 0 0 0 0 1 delete
08:34:02 57.205107 60.117569 0 0 0 0 1 delete
08:34:01 57.205123 60.117583 0 0 0 0 1 delete